CHIUDI BANNER

Seguici su twitter Seguici su facebook
LIVE Streaming HD
Get Adobe Flash player
Animazione Masse d'Aria e Nubi
satellite e T nubi
DNA SURF SHOP
Consigli pubblicitari di Google
Dati meteo stazione (refresh automatico ogni minuto)
Senigallia VENTO: VELOCITÀ   PIOGGIA: QTA GIORNO TEMPERATURA: ATTUALE
SPOT: Darsena Di Senigallia RAFFICA MASSIMA: QTA MENSILE: MASSIMA:
VELOCITÀ MEDIA: QTA ANNUALE: MINIMA:
DIREZIONE: UMIDITÀ: WIND CHILL:
TIPO: DEW POINT:
BEAUFORT: PRESSIONE:
I nostri partner
Senigallia nelle ultime ore
Applica filtri in visualizzazione Intervallo delle letture nelle ultime

Ora Direzione Vento Velocita' Vento Media Vento Raffica Max. Temperatura Wind Chill Pioggia Pressione
15:52:2924 °(NNE)2.6 Kts4.3 Kts11.3 Kts26.2 °C25.8 °C0 mm1009.6 Hpa
15:47:1414 °(NNE)5.2 Kts4.3 Kts11.3 Kts26.2 °C25.8 °C0 mm1009.7 Hpa
15:42:035 °(N)4.3 Kts5.2 Kts11.3 Kts26.2 °C25.6 °C0 mm1009.7 Hpa
15:37:22344 °(NNW)6.1 Kts5.2 Kts11.3 Kts26.3 °C25.7 °C0 mm1009.7 Hpa
15:32:36355 °(N)5.2 Kts4.3 Kts11.3 Kts26.3 °C25.9 °C0 mm1009.7 Hpa
15:27:22355 °(N)5.2 Kts5.2 Kts11.3 Kts26.2 °C25.6 °C0 mm1009.7 Hpa
15:22:075 °(N)5.2 Kts5.2 Kts11.3 Kts25.9 °C25.3 °C0 mm1009.6 Hpa
15:17:2512 °(NNE)5.2 Kts5.2 Kts11.3 Kts26.1 °C25.4 °C0 mm1009.5 Hpa
15:12:10355 °(N)4.3 Kts5.2 Kts11.3 Kts26 °C25.4 °C0 mm1009.7 Hpa
15:07:31355 °(N)4.3 Kts5.2 Kts11.3 Kts26 °C25.4 °C0 mm1009.8 Hpa
15:02:18348 °(NNW)5.2 Kts5.2 Kts11.3 Kts26.1 °C25.4 °C0 mm1009.8 Hpa
14:57:36351 °(N)5.2 Kts5.2 Kts11.3 Kts26 °C25.4 °C0 mm1009.7 Hpa
14:52:00350 °(N)5.2 Kts5.2 Kts11.3 Kts25.9 °C25.3 °C0 mm1009.9 Hpa
14:47:19355 °(N)5.2 Kts5.2 Kts11.3 Kts26.1 °C25.5 °C0 mm1009.9 Hpa
14:42:08338 °(NNW)7 Kts6.1 Kts11.3 Kts26 °C25.1 °C0 mm1009.9 Hpa
14:37:25355 °(N)5.2 Kts6.1 Kts11.3 Kts25.7 °C24.9 °C0 mm1010 Hpa
14:32:29342 °(NNW)6.1 Kts6.1 Kts11.3 Kts25.9 °C25 °C0 mm1010 Hpa
14:27:22355 °(N)7 Kts6.1 Kts11.3 Kts25.9 °C25 °C0 mm1010 Hpa
14:22:09345 °(NNW)6.1 Kts6.1 Kts11.3 Kts25.9 °C25 °C0 mm1010 Hpa
14:17:12349 °(N)7 Kts6.1 Kts11.3 Kts25.9 °C25 °C0 mm1010.1 Hpa
14:12:305 °(N)3.5 Kts6.1 Kts11.3 Kts25.7 °C24.9 °C0 mm1010.1 Hpa
14:07:17355 °(N)7 Kts6.1 Kts11.3 Kts25.8 °C24.7 °C0 mm1010 Hpa
14:02:36346 °(NNW)6.1 Kts6.1 Kts11.3 Kts25.8 °C24.7 °C0 mm1010 Hpa
13:57:24349 °(N)6.1 Kts6.1 Kts11.3 Kts25.7 °C24.9 °C0 mm1010 Hpa